sensor_id;sensor_type;location;lat;lon;timestamp;temperature;humidity
24522;DHT22;12680;57.804;12.190;2023-03-23T00:01:12;6.00;99.90
24522;DHT22;12680;57.804;12.190;2023-03-23T00:03:39;5.90;99.90
24522;DHT22;12680;57.804;12.190;2023-03-23T00:06:06;5.90;99.90
24522;DHT22;12680;57.804;12.190;2023-03-23T00:08:33;5.90;99.90
24522;DHT22;12680;57.804;12.190;2023-03-23T00:11:03;5.90;99.90
24522;DHT22;12680;57.804;12.190;2023-03-23T00:13:29;6.40;99.90
24522;DHT22;12680;57.804;12.190;2023-03-23T00:15:55;7.00;99.90
24522;DHT22;12680;57.804;12.190;2023-03-23T00:18:23;5.80;99.90
24522;DHT22;12680;57.804;12.190;2023-03-23T00:20:54;5.70;99.90
24522;DHT22;12680;57.804;12.190;2023-03-23T00:23:21;5.70;99.90
24522;DHT22;12680;57.804;12.190;2023-03-23T00:25:53;7.30;99.90
24522;DHT22;12680;57.804;12.190;2023-03-23T00:28:23;5.70;99.90
24522;DHT22;12680;57.804;12.190;2023-03-23T00:31:02;5.60;99.90
24522;DHT22;12680;57.804;12.190;2023-03-23T00:33:31;5.60;99.90
24522;DHT22;12680;57.804;12.190;2023-03-23T00:36:07;5.60;99.90
24522;DHT22;12680;57.804;12.190;2023-03-23T00:38:34;5.60;99.90
24522;DHT22;12680;57.804;12.190;2023-03-23T00:41:00;5.60;99.90
24522;DHT22;12680;57.804;12.190;2023-03-23T00:43:29;5.50;99.90
24522;DHT22;12680;57.804;12.190;2023-03-23T00:45:56;5.50;99.90
24522;DHT22;12680;57.804;12.190;2023-03-23T00:48:23;5.60;99.90
24522;DHT22;12680;57.804;12.190;2023-03-23T00:50:50;5.70;99.90
24522;DHT22;12680;57.804;12.190;2023-03-23T00:53:17;5.70;99.90
24522;DHT22;12680;57.804;12.190;2023-03-23T00:55:48;5.80;99.90
24522;DHT22;12680;57.804;12.190;2023-03-23T00:58:15;8.00;99.90
24522;DHT22;12680;57.804;12.190;2023-03-23T01:00:41;6.00;99.90
24522;DHT22;12680;57.804;12.190;2023-03-23T01:03:08;8.00;99.90
24522;DHT22;12680;57.804;12.190;2023-03-23T01:05:38;6.10;99.90
24522;DHT22;12680;57.804;12.190;2023-03-23T01:08:05;6.10;99.90
24522;DHT22;12680;57.804;12.190;2023-03-23T01:10:31;6.20;99.90
24522;DHT22;12680;57.804;12.190;2023-03-23T01:13:04;6.30;99.90
24522;DHT22;12680;57.804;12.190;2023-03-23T01:15:31;6.30;99.90
24522;DHT22;12680;57.804;12.190;2023-03-23T01:17:57;6.30;99.90
24522;DHT22;12680;57.804;12.190;2023-03-23T01:20:24;6.40;99.90
24522;DHT22;12680;57.804;12.190;2023-03-23T01:22:52;6.40;99.90
24522;DHT22;12680;57.804;12.190;2023-03-23T01:25:19;6.40;99.90
24522;DHT22;12680;57.804;12.190;2023-03-23T01:27:45;6.50;99.90
24522;DHT22;12680;57.804;12.190;2023-03-23T01:30:12;8.60;99.90
24522;DHT22;12680;57.804;12.190;2023-03-23T01:32:38;6.50;99.90
24522;DHT22;12680;57.804;12.190;2023-03-23T01:35:04;6.60;99.90
24522;DHT22;12680;57.804;12.190;2023-03-23T01:37:31;6.60;99.90
24522;DHT22;12680;57.804;12.190;2023-03-23T01:39:57;7.80;99.90
24522;DHT22;12680;57.804;12.190;2023-03-23T01:42:30;6.70;99.90
24522;DHT22;12680;57.804;12.190;2023-03-23T01:47:47;6.80;99.90
24522;DHT22;12680;57.804;12.190;2023-03-23T01:50:13;6.80;99.90
24522;DHT22;12680;57.804;12.190;2023-03-23T01:52:40;6.80;99.90
24522;DHT22;12680;57.804;12.190;2023-03-23T01:55:06;6.80;99.90
24522;DHT22;12680;57.804;12.190;2023-03-23T01:57:33;6.80;99.90
24522;DHT22;12680;57.804;12.190;2023-03-23T02:00:03;6.80;99.90
24522;DHT22;12680;57.804;12.190;2023-03-23T02:02:36;6.90;99.90
24522;DHT22;12680;57.804;12.190;2023-03-23T02:05:10;6.90;99.90
24522;DHT22;12680;57.804;12.190;2023-03-23T02:07:37;6.90;99.90
24522;DHT22;12680;57.804;12.190;2023-03-23T02:10:03;6.90;99.90
24522;DHT22;12680;57.804;12.190;2023-03-23T02:12:29;6.90;99.90
24522;DHT22;12680;57.804;12.190;2023-03-23T02:14:56;6.90;99.90
24522;DHT22;12680;57.804;12.190;2023-03-23T02:20:38;6.90;99.90
24522;DHT22;12680;57.804;12.190;2023-03-23T02:23:22;6.80;99.90
24522;DHT22;12680;57.804;12.190;2023-03-23T02:26:03;6.70;99.90
24522;DHT22;12680;57.804;12.190;2023-03-23T02:28:51;6.70;99.90
24522;DHT22;12680;57.804;12.190;2023-03-23T02:31:44;6.70;99.90
24522;DHT22;12680;57.804;12.190;2023-03-23T02:34:19;6.70;99.90
24522;DHT22;12680;57.804;12.190;2023-03-23T02:37:09;6.70;99.90
24522;DHT22;12680;57.804;12.190;2023-03-23T02:40:00;6.80;99.90
24522;DHT22;12680;57.804;12.190;2023-03-23T02:42:33;6.80;99.90
24522;DHT22;12680;57.804;12.190;2023-03-23T02:45:07;6.80;99.90
24522;DHT22;12680;57.804;12.190;2023-03-23T02:47:36;6.80;99.90
24522;DHT22;12680;57.804;12.190;2023-03-23T02:50:03;6.70;99.90
24522;DHT22;12680;57.804;12.190;2023-03-23T02:52:31;6.70;99.90
24522;DHT22;12680;57.804;12.190;2023-03-23T02:54:59;8.30;99.90
24522;DHT22;12680;57.804;12.190;2023-03-23T02:57:27;6.70;99.90
24522;DHT22;12680;57.804;12.190;2023-03-23T02:59:53;6.60;99.90
24522;DHT22;12680;57.804;12.190;2023-03-23T03:02:32;6.60;99.90
24522;DHT22;12680;57.804;12.190;2023-03-23T03:05:30;6.70;99.90
24522;DHT22;12680;57.804;12.190;2023-03-23T03:10:50;6.80;99.90
24522;DHT22;12680;57.804;12.190;2023-03-23T03:13:50;6.80;99.90
24522;DHT22;12680;57.804;12.190;2023-03-23T03:19:16;6.80;99.90
24522;DHT22;12680;57.804;12.190;2023-03-23T03:21:46;6.80;99.90
24522;DHT22;12680;57.804;12.190;2023-03-23T03:24:17;6.80;99.90
24522;DHT22;12680;57.804;12.190;2023-03-23T03:26:46;6.90;99.90
24522;DHT22;12680;57.804;12.190;2023-03-23T03:29:15;6.90;99.90
24522;DHT22;12680;57.804;12.190;2023-03-23T03:31:43;6.90;99.90
24522;DHT22;12680;57.804;12.190;2023-03-23T03:34:11;8.10;99.90
24522;DHT22;12680;57.804;12.190;2023-03-23T03:36:38;6.90;99.90
24522;DHT22;12680;57.804;12.190;2023-03-23T03:39:08;7.00;99.90
24522;DHT22;12680;57.804;12.190;2023-03-23T03:41:36;7.00;99.90
24522;DHT22;12680;57.804;12.190;2023-03-23T03:44:03;7.00;99.90
24522;DHT22;12680;57.804;12.190;2023-03-23T03:46:29;8.40;99.90
24522;DHT22;12680;57.804;12.190;2023-03-23T03:48:57;7.00;99.90
24522;DHT22;12680;57.804;12.190;2023-03-23T03:51:24;7.10;99.90
24522;DHT22;12680;57.804;12.190;2023-03-23T03:53:50;7.10;99.90
24522;DHT22;12680;57.804;12.190;2023-03-23T03:56:16;9.10;99.90
24522;DHT22;12680;57.804;12.190;2023-03-23T03:58:42;7.20;99.90
24522;DHT22;12680;57.804;12.190;2023-03-23T04:01:11;7.20;99.90
24522;DHT22;12680;57.804;12.190;2023-03-23T04:03:38;7.20;99.90
24522;DHT22;12680;57.804;12.190;2023-03-23T04:06:04;7.20;99.90
24522;DHT22;12680;57.804;12.190;2023-03-23T04:08:30;7.20;99.90
24522;DHT22;12680;57.804;12.190;2023-03-23T04:10:56;7.20;99.90
24522;DHT22;12680;57.804;12.190;2023-03-23T04:13:21;7.20;99.90
24522;DHT22;12680;57.804;12.190;2023-03-23T04:15:48;7.20;99.90
24522;DHT22;12680;57.804;12.190;2023-03-23T04:18:15;7.20;99.90
24522;DHT22;12680;57.804;12.190;2023-03-23T04:20:43;7.20;99.90
24522;DHT22;12680;57.804;12.190;2023-03-23T04:23:10;7.20;99.90
24522;DHT22;12680;57.804;12.190;2023-03-23T04:25:36;9.20;99.90
24522;DHT22;12680;57.804;12.190;2023-03-23T04:28:01;7.20;99.90
24522;DHT22;12680;57.804;12.190;2023-03-23T04:30:28;7.20;99.90
24522;DHT22;12680;57.804;12.190;2023-03-23T04:32:56;7.20;99.90
24522;DHT22;12680;57.804;12.190;2023-03-23T04:35:23;8.70;99.90
24522;DHT22;12680;57.804;12.190;2023-03-23T04:37:53;7.10;99.90
24522;DHT22;12680;57.804;12.190;2023-03-23T04:40:19;7.10;99.90
24522;DHT22;12680;57.804;12.190;2023-03-23T04:42:46;7.00;99.90
24522;DHT22;12680;57.804;12.190;2023-03-23T04:45:14;7.00;99.90
24522;DHT22;12680;57.804;12.190;2023-03-23T04:47:40;6.90;99.90
24522;DHT22;12680;57.804;12.190;2023-03-23T04:50:11;6.90;99.90
24522;DHT22;12680;57.804;12.190;2023-03-23T04:52:38;6.80;99.90
24522;DHT22;12680;57.804;12.190;2023-03-23T04:55:07;6.80;99.90
24522;DHT22;12680;57.804;12.190;2023-03-23T04:57:34;6.70;99.90
24522;DHT22;12680;57.804;12.190;2023-03-23T05:00:04;6.70;99.90
24522;DHT22;12680;57.804;12.190;2023-03-23T05:02:37;6.70;99.90
24522;DHT22;12680;57.804;12.190;2023-03-23T05:05:09;6.70;99.90
24522;DHT22;12680;57.804;12.190;2023-03-23T05:07:37;6.80;99.90
24522;DHT22;12680;57.804;12.190;2023-03-23T05:10:04;6.80;99.90
24522;DHT22;12680;57.804;12.190;2023-03-23T05:12:29;6.80;99.90
24522;DHT22;12680;57.804;12.190;2023-03-23T05:14:55;6.80;99.90
24522;DHT22;12680;57.804;12.190;2023-03-23T05:17:21;6.80;99.90
24522;DHT22;12680;57.804;12.190;2023-03-23T05:19:50;8.10;99.90
24522;DHT22;12680;57.804;12.190;2023-03-23T05:22:17;6.90;99.90
24522;DHT22;12680;57.804;12.190;2023-03-23T05:24:42;6.90;99.90
24522;DHT22;12680;57.804;12.190;2023-03-23T05:27:11;6.90;99.90
24522;DHT22;12680;57.804;12.190;2023-03-23T05:29:37;7.00;99.90
24522;DHT22;12680;57.804;12.190;2023-03-23T05:32:09;7.00;99.90
24522;DHT22;12680;57.804;12.190;2023-03-23T05:34:36;7.00;99.90
24522;DHT22;12680;57.804;12.190;2023-03-23T05:37:03;7.10;99.90
24522;DHT22;12680;57.804;12.190;2023-03-23T05:39:29;7.10;99.90
24522;DHT22;12680;57.804;12.190;2023-03-23T05:41:56;7.20;99.90
24522;DHT22;12680;57.804;12.190;2023-03-23T05:44:23;7.90;99.90
24522;DHT22;12680;57.804;12.190;2023-03-23T05:46:49;7.20;99.90
24522;DHT22;12680;57.804;12.190;2023-03-23T05:49:16;7.20;99.90
24522;DHT22;12680;57.804;12.190;2023-03-23T05:51:45;7.30;99.90
24522;DHT22;12680;57.804;12.190;2023-03-23T05:54:12;7.30;99.90
24522;DHT22;12680;57.804;12.190;2023-03-23T05:56:37;7.30;99.90
24522;DHT22;12680;57.804;12.190;2023-03-23T05:59:03;7.30;99.90
24522;DHT22;12680;57.804;12.190;2023-03-23T06:01:30;7.30;99.90
24522;DHT22;12680;57.804;12.190;2023-03-23T06:03:55;7.30;99.90
24522;DHT22;12680;57.804;12.190;2023-03-23T06:06:27;7.40;99.90
24522;DHT22;12680;57.804;12.190;2023-03-23T06:08:56;7.40;99.90
24522;DHT22;12680;57.804;12.190;2023-03-23T06:11:23;7.40;99.90
24522;DHT22;12680;57.804;12.190;2023-03-23T06:13:50;7.40;99.90
24522;DHT22;12680;57.804;12.190;2023-03-23T06:16:16;7.40;99.90
24522;DHT22;12680;57.804;12.190;2023-03-23T06:18:42;7.40;99.90
24522;DHT22;12680;57.804;12.190;2023-03-23T06:21:09;7.40;99.90
24522;DHT22;12680;57.804;12.190;2023-03-23T06:23:35;7.40;99.90
24522;DHT22;12680;57.804;12.190;2023-03-23T06:26:03;7.90;99.90
24522;DHT22;12680;57.804;12.190;2023-03-23T06:28:31;7.40;99.90
24522;DHT22;12680;57.804;12.190;2023-03-23T06:31:04;7.40;99.90
24522;DHT22;12680;57.804;12.190;2023-03-23T06:33:32;7.40;99.90
24522;DHT22;12680;57.804;12.190;2023-03-23T06:35:59;7.40;99.90
24522;DHT22;12680;57.804;12.190;2023-03-23T06:38:25;7.40;99.90
24522;DHT22;12680;57.804;12.190;2023-03-23T06:40:55;7.40;99.90
24522;DHT22;12680;57.804;12.190;2023-03-23T06:43:21;7.40;99.90
24522;DHT22;12680;57.804;12.190;2023-03-23T06:45:47;9.10;99.90
24522;DHT22;12680;57.804;12.190;2023-03-23T06:48:13;9.20;99.90
24522;DHT22;12680;57.804;12.190;2023-03-23T06:50:38;7.60;99.90
24522;DHT22;12680;57.804;12.190;2023-03-23T06:53:07;7.60;99.90
24522;DHT22;12680;57.804;12.190;2023-03-23T06:55:33;7.60;99.90
24522;DHT22;12680;57.804;12.190;2023-03-23T06:57:58;7.70;99.90
24522;DHT22;12680;57.804;12.190;2023-03-23T07:00:26;7.80;99.90
24522;DHT22;12680;57.804;12.190;2023-03-23T07:02:52;7.80;99.90
24522;DHT22;12680;57.804;12.190;2023-03-23T07:05:18;7.90;99.90
24522;DHT22;12680;57.804;12.190;2023-03-23T07:07:44;8.00;99.90
24522;DHT22;12680;57.804;12.190;2023-03-23T07:10:10;8.10;99.90
24522;DHT22;12680;57.804;12.190;2023-03-23T07:12:37;9.60;99.90
24522;DHT22;12680;57.804;12.190;2023-03-23T07:15:04;8.20;99.90
24522;DHT22;12680;57.804;12.190;2023-03-23T07:17:30;8.20;99.90
24522;DHT22;12680;57.804;12.190;2023-03-23T07:19:56;10.00;99.90
24522;DHT22;12680;57.804;12.190;2023-03-23T07:22:22;9.30;99.90
24522;DHT22;12680;57.804;12.190;2023-03-23T07:24:48;8.40;99.90
24522;DHT22;12680;57.804;12.190;2023-03-23T07:27:13;8.40;99.90
24522;DHT22;12680;57.804;12.190;2023-03-23T07:29:39;8.30;99.90
24522;DHT22;12680;57.804;12.190;2023-03-23T07:32:06;8.80;99.90
24522;DHT22;12680;57.804;12.190;2023-03-23T07:34:32;8.30;99.90
24522;DHT22;12680;57.804;12.190;2023-03-23T07:36:58;8.30;99.90
24522;DHT22;12680;57.804;12.190;2023-03-23T07:39:24;9.50;99.90
24522;DHT22;12680;57.804;12.190;2023-03-23T07:41:51;8.20;99.90
24522;DHT22;12680;57.804;12.190;2023-03-23T07:44:17;9.50;99.90
24522;DHT22;12680;57.804;12.190;2023-03-23T07:46:43;8.30;99.90
24522;DHT22;12680;57.804;12.190;2023-03-23T07:49:09;8.30;99.90
24522;DHT22;12680;57.804;12.190;2023-03-23T07:51:35;8.40;99.90
24522;DHT22;12680;57.804;12.190;2023-03-23T07:54:04;8.40;99.90
24522;DHT22;12680;57.804;12.190;2023-03-23T07:56:31;8.40;99.90
24522;DHT22;12680;57.804;12.190;2023-03-23T07:58:56;8.40;99.90
24522;DHT22;12680;57.804;12.190;2023-03-23T08:01:22;8.40;99.90
24522;DHT22;12680;57.804;12.190;2023-03-23T08:03:49;8.90;99.90
24522;DHT22;12680;57.804;12.190;2023-03-23T08:06:15;8.60;99.90
24522;DHT22;12680;57.804;12.190;2023-03-23T08:08:41;8.90;99.90
24522;DHT22;12680;57.804;12.190;2023-03-23T08:11:07;10.40;99.90
24522;DHT22;12680;57.804;12.190;2023-03-23T08:13:33;8.70;99.90
24522;DHT22;12680;57.804;12.190;2023-03-23T08:16:01;8.70;99.90
24522;DHT22;12680;57.804;12.190;2023-03-23T08:18:30;8.70;99.90
24522;DHT22;12680;57.804;12.190;2023-03-23T08:20:56;8.80;99.90
24522;DHT22;12680;57.804;12.190;2023-03-23T08:23:21;8.80;99.90
24522;DHT22;12680;57.804;12.190;2023-03-23T08:25:47;9.00;99.90
24522;DHT22;12680;57.804;12.190;2023-03-23T08:28:13;9.10;99.90
24522;DHT22;12680;57.804;12.190;2023-03-23T08:30:40;9.20;99.90
24522;DHT22;12680;57.804;12.190;2023-03-23T08:33:07;9.30;99.90
24522;DHT22;12680;57.804;12.190;2023-03-23T08:35:34;9.40;99.90
24522;DHT22;12680;57.804;12.190;2023-03-23T08:37:59;9.40;99.90
24522;DHT22;12680;57.804;12.190;2023-03-23T08:40:26;9.50;99.90
24522;DHT22;12680;57.804;12.190;2023-03-23T08:42:53;9.70;99.90
24522;DHT22;12680;57.804;12.190;2023-03-23T08:45:24;9.80;99.90
24522;DHT22;12680;57.804;12.190;2023-03-23T08:47:50;10.00;99.90
24522;DHT22;12680;57.804;12.190;2023-03-23T08:50:20;10.10;99.90
24522;DHT22;12680;57.804;12.190;2023-03-23T08:52:47;10.10;99.90
24522;DHT22;12680;57.804;12.190;2023-03-23T08:55:13;11.50;99.90
24522;DHT22;12680;57.804;12.190;2023-03-23T08:57:39;11.60;99.90
24522;DHT22;12680;57.804;12.190;2023-03-23T09:00:07;9.90;99.90
24522;DHT22;12680;57.804;12.190;2023-03-23T09:02:40;9.90;99.90
24522;DHT22;12680;57.804;12.190;2023-03-23T09:05:06;10.60;99.90
24522;DHT22;12680;57.804;12.190;2023-03-23T09:07:32;9.90;99.90
24522;DHT22;12680;57.804;12.190;2023-03-23T09:09:58;9.80;99.90
24522;DHT22;12680;57.804;12.190;2023-03-23T09:12:23;9.70;99.90
24522;DHT22;12680;57.804;12.190;2023-03-23T09:14:49;10.20;99.90
24522;DHT22;12680;57.804;12.190;2023-03-23T09:17:15;9.60;99.90
24522;DHT22;12680;57.804;12.190;2023-03-23T09:19:40;9.60;99.90
24522;DHT22;12680;57.804;12.190;2023-03-23T09:22:06;9.70;99.90
24522;DHT22;12680;57.804;12.190;2023-03-23T09:24:33;9.80;99.90
24522;DHT22;12680;57.804;12.190;2023-03-23T09:26:59;9.80;99.90
24522;DHT22;12680;57.804;12.190;2023-03-23T09:29:26;11.30;99.90
24522;DHT22;12680;57.804;12.190;2023-03-23T09:31:55;10.30;99.90
24522;DHT22;12680;57.804;12.190;2023-03-23T09:34:21;10.50;99.90
24522;DHT22;12680;57.804;12.190;2023-03-23T09:36:48;10.70;99.90
24522;DHT22;12680;57.804;12.190;2023-03-23T09:39:15;10.90;99.90
24522;DHT22;12680;57.804;12.190;2023-03-23T09:42:04;11.10;99.90
24522;DHT22;12680;57.804;12.190;2023-03-23T09:44:45;11.10;99.90
24522;DHT22;12680;57.804;12.190;2023-03-23T09:47:24;11.10;99.90
24522;DHT22;12680;57.804;12.190;2023-03-23T09:49:58;11.10;99.90
24522;DHT22;12680;57.804;12.190;2023-03-23T09:52:39;11.20;99.90
24522;DHT22;12680;57.804;12.190;2023-03-23T09:55:11;11.10;99.90
24522;DHT22;12680;57.804;12.190;2023-03-23T09:57:45;11.10;99.90
24522;DHT22;12680;57.804;12.190;2023-03-23T10:00:35;9.80;99.90
24522;DHT22;12680;57.804;12.190;2023-03-23T10:05:42;11.10;99.90
24522;DHT22;12680;57.804;12.190;2023-03-23T10:08:31;11.20;99.90
24522;DHT22;12680;57.804;12.190;2023-03-23T10:11:19;11.20;99.90
24522;DHT22;12680;57.804;12.190;2023-03-23T10:14:22;11.20;99.90
24522;DHT22;12680;57.804;12.190;2023-03-23T10:17:18;11.10;99.90
24522;DHT22;12680;57.804;12.190;2023-03-23T10:23:00;10.90;99.90
24522;DHT22;12680;57.804;12.190;2023-03-23T10:25:35;10.80;99.90
24522;DHT22;12680;57.804;12.190;2023-03-23T10:28:10;12.60;99.90
24522;DHT22;12680;57.804;12.190;2023-03-23T10:30:43;10.80;99.90
24522;DHT22;12680;57.804;12.190;2023-03-23T10:33:29;10.70;99.90
24522;DHT22;12680;57.804;12.190;2023-03-23T10:36:22;10.70;99.90
24522;DHT22;12680;57.804;12.190;2023-03-23T10:38:57;10.60;99.90
24522;DHT22;12680;57.804;12.190;2023-03-23T10:41:23;10.60;99.90
24522;DHT22;12680;57.804;12.190;2023-03-23T10:43:49;10.70;99.90
24522;DHT22;12680;57.804;12.190;2023-03-23T10:46:27;10.50;99.90
24522;DHT22;12680;57.804;12.190;2023-03-23T10:48:56;10.50;99.90
24522;DHT22;12680;57.804;12.190;2023-03-23T10:51:28;11.70;99.90
24522;DHT22;12680;57.804;12.190;2023-03-23T10:53:58;10.60;99.90
24522;DHT22;12680;57.804;12.190;2023-03-23T10:56:27;10.60;99.90
24522;DHT22;12680;57.804;12.190;2023-03-23T10:58:54;10.70;99.90
24522;DHT22;12680;57.804;12.190;2023-03-23T11:01:31;10.80;99.90
24522;DHT22;12680;57.804;12.190;2023-03-23T11:03:57;10.80;99.90
24522;DHT22;12680;57.804;12.190;2023-03-23T11:06:33;10.80;99.90
24522;DHT22;12680;57.804;12.190;2023-03-23T11:09:15;12.50;99.90
24522;DHT22;12680;57.804;12.190;2023-03-23T11:11:48;10.80;99.90
24522;DHT22;12680;57.804;12.190;2023-03-23T11:14:25;10.80;99.90
24522;DHT22;12680;57.804;12.190;2023-03-23T11:16:55;10.80;99.90
24522;DHT22;12680;57.804;12.190;2023-03-23T11:19:30;10.80;99.90
24522;DHT22;12680;57.804;12.190;2023-03-23T11:24:41;10.80;99.90
24522;DHT22;12680;57.804;12.190;2023-03-23T11:27:08;10.70;99.90
24522;DHT22;12680;57.804;12.190;2023-03-23T11:29:36;10.70;99.90
24522;DHT22;12680;57.804;12.190;2023-03-23T11:32:05;10.90;99.90
24522;DHT22;12680;57.804;12.190;2023-03-23T11:34:52;10.70;99.90
24522;DHT22;12680;57.804;12.190;2023-03-23T11:39:59;10.70;99.90
24522;DHT22;12680;57.804;12.190;2023-03-23T11:45:48;10.70;99.90
24522;DHT22;12680;57.804;12.190;2023-03-23T11:48:35;10.70;99.90
24522;DHT22;12680;57.804;12.190;2023-03-23T11:51:17;10.60;99.90
24522;DHT22;12680;57.804;12.190;2023-03-23T11:54:15;10.60;99.90
24522;DHT22;12680;57.804;12.190;2023-03-23T11:56:44;10.60;99.90
24522;DHT22;12680;57.804;12.190;2023-03-23T11:59:17;10.60;99.90
24522;DHT22;12680;57.804;12.190;2023-03-23T12:02:07;10.60;99.90
24522;DHT22;12680;57.804;12.190;2023-03-23T12:07:51;10.50;99.90
24522;DHT22;12680;57.804;12.190;2023-03-23T12:10:34;10.50;99.90
24522;DHT22;12680;57.804;12.190;2023-03-23T12:19:28;10.30;99.90
24522;DHT22;12680;57.804;12.190;2023-03-23T12:22:09;10.30;99.90
24522;DHT22;12680;57.804;12.190;2023-03-23T12:27:25;10.30;99.90
24522;DHT22;12680;57.804;12.190;2023-03-23T12:32:59;10.20;99.90
24522;DHT22;12680;57.804;12.190;2023-03-23T12:35:42;10.20;99.90
24522;DHT22;12680;57.804;12.190;2023-03-23T12:41:38;10.10;99.90
24522;DHT22;12680;57.804;12.190;2023-03-23T12:44:09;10.10;99.90
24522;DHT22;12680;57.804;12.190;2023-03-23T12:55:34;10.10;99.90
24522;DHT22;12680;57.804;12.190;2023-03-23T12:58:05;10.10;99.90
24522;DHT22;12680;57.804;12.190;2023-03-23T13:01:01;10.20;99.90
24522;DHT22;12680;57.804;12.190;2023-03-23T13:06:36;10.10;99.90
24522;DHT22;12680;57.804;12.190;2023-03-23T13:09:43;10.00;99.90
24522;DHT22;12680;57.804;12.190;2023-03-23T13:12:11;9.80;99.90
24522;DHT22;12680;57.804;12.190;2023-03-23T13:20:13;9.60;99.90
24522;DHT22;12680;57.804;12.190;2023-03-23T13:23:03;9.50;99.90
24522;DHT22;12680;57.804;12.190;2023-03-23T13:26:02;11.00;99.90
24522;DHT22;12680;57.804;12.190;2023-03-23T13:28:31;9.30;99.90
24522;DHT22;12680;57.804;12.190;2023-03-23T13:31:20;9.30;99.90
24522;DHT22;12680;57.804;12.190;2023-03-23T13:33:57;9.20;99.90
24522;DHT22;12680;57.804;12.190;2023-03-23T13:36:36;9.10;99.90
24522;DHT22;12680;57.804;12.190;2023-03-23T13:39:05;9.00;99.90
24522;DHT22;12680;57.804;12.190;2023-03-23T13:41:33;9.00;99.90
24522;DHT22;12680;57.804;12.190;2023-03-23T13:44:26;9.00;99.90
24522;DHT22;12680;57.804;12.190;2023-03-23T13:46:55;9.00;99.90
24522;DHT22;12680;57.804;12.190;2023-03-23T13:49:22;9.00;99.90
24522;DHT22;12680;57.804;12.190;2023-03-23T13:51:58;9.00;99.90
24522;DHT22;12680;57.804;12.190;2023-03-23T13:54:43;9.00;99.90
24522;DHT22;12680;57.804;12.190;2023-03-23T13:57:48;9.00;99.90
24522;DHT22;12680;57.804;12.190;2023-03-23T14:05:38;9.00;99.90
24522;DHT22;12680;57.804;12.190;2023-03-23T14:08:14;9.10;99.90
24522;DHT22;12680;57.804;12.190;2023-03-23T14:10:50;9.10;99.90
24522;DHT22;12680;57.804;12.190;2023-03-23T14:13:32;9.10;99.90
24522;DHT22;12680;57.804;12.190;2023-03-23T14:16:02;9.10;99.90
24522;DHT22;12680;57.804;12.190;2023-03-23T14:18:34;9.00;99.90
24522;DHT22;12680;57.804;12.190;2023-03-23T14:21:00;9.10;99.90
24522;DHT22;12680;57.804;12.190;2023-03-23T14:23:26;9.10;99.90
24522;DHT22;12680;57.804;12.190;2023-03-23T14:25:58;9.10;99.90
24522;DHT22;12680;57.804;12.190;2023-03-23T14:28:31;9.00;99.90
24522;DHT22;12680;57.804;12.190;2023-03-23T14:30:58;9.10;99.90
24522;DHT22;12680;57.804;12.190;2023-03-23T14:33:26;9.10;99.90
24522;DHT22;12680;57.804;12.190;2023-03-23T14:35:52;9.20;99.90
24522;DHT22;12680;57.804;12.190;2023-03-23T14:38:21;9.30;99.90
24522;DHT22;12680;57.804;12.190;2023-03-23T14:40:50;9.30;99.90
24522;DHT22;12680;57.804;12.190;2023-03-23T14:43:18;9.40;99.90
24522;DHT22;12680;57.804;12.190;2023-03-23T14:45:52;9.40;99.90
24522;DHT22;12680;57.804;12.190;2023-03-23T14:48:20;10.90;99.90
24522;DHT22;12680;57.804;12.190;2023-03-23T14:50:52;9.50;99.90
24522;DHT22;12680;57.804;12.190;2023-03-23T14:53:52;9.50;99.90
24522;DHT22;12680;57.804;12.190;2023-03-23T14:56:15;9.40;99.90
24522;DHT22;12680;57.804;12.190;2023-03-23T14:58:46;9.50;99.90
24522;DHT22;12680;57.804;12.190;2023-03-23T15:01:23;9.50;99.90
24522;DHT22;12680;57.804;12.190;2023-03-23T15:03:58;10.80;99.90
24522;DHT22;12680;57.804;12.190;2023-03-23T15:06:28;10.60;99.90
24522;DHT22;12680;57.804;12.190;2023-03-23T15:08:58;10.60;99.90
24522;DHT22;12680;57.804;12.190;2023-03-23T15:11:29;9.70;99.90
24522;DHT22;12680;57.804;12.190;2023-03-23T15:14:00;9.70;99.90
24522;DHT22;12680;57.804;12.190;2023-03-23T15:16:33;10.40;99.90
24522;DHT22;12680;57.804;12.190;2023-03-23T15:19:05;9.70;99.90
24522;DHT22;12680;57.804;12.190;2023-03-23T15:21:45;9.70;99.90
24522;DHT22;12680;57.804;12.190;2023-03-23T15:24:38;9.70;99.90
24522;DHT22;12680;57.804;12.190;2023-03-23T15:27:26;9.80;99.90
24522;DHT22;12680;57.804;12.190;2023-03-23T15:29:55;9.70;99.90
24522;DHT22;12680;57.804;12.190;2023-03-23T15:32:30;9.70;99.90
24522;DHT22;12680;57.804;12.190;2023-03-23T15:35:02;9.70;99.90
24522;DHT22;12680;57.804;12.190;2023-03-23T15:37:30;9.70;99.90
24522;DHT22;12680;57.804;12.190;2023-03-23T15:39:58;9.90;99.90
24522;DHT22;12680;57.804;12.190;2023-03-23T15:42:33;10.00;99.90
24522;DHT22;12680;57.804;12.190;2023-03-23T15:45:20;10.00;99.90
24522;DHT22;12680;57.804;12.190;2023-03-23T15:47:48;10.00;99.90
24522;DHT22;12680;57.804;12.190;2023-03-23T15:52:52;9.90;99.90
24522;DHT22;12680;57.804;12.190;2023-03-23T15:57:47;9.80;99.90
24522;DHT22;12680;57.804;12.190;2023-03-23T16:00:15;11.60;99.90
24522;DHT22;12680;57.804;12.190;2023-03-23T16:02:43;9.80;99.90
24522;DHT22;12680;57.804;12.190;2023-03-23T16:05:12;9.80;99.90
24522;DHT22;12680;57.804;12.190;2023-03-23T16:07:38;9.70;99.90
24522;DHT22;12680;57.804;12.190;2023-03-23T16:10:09;9.60;99.90
24522;DHT22;12680;57.804;12.190;2023-03-23T16:12:37;9.60;99.90
24522;DHT22;12680;57.804;12.190;2023-03-23T16:15:04;9.60;99.90
24522;DHT22;12680;57.804;12.190;2023-03-23T16:17:31;9.70;99.90
24522;DHT22;12680;57.804;12.190;2023-03-23T16:19:58;9.60;99.90
24522;DHT22;12680;57.804;12.190;2023-03-23T16:22:25;9.60;99.90
24522;DHT22;12680;57.804;12.190;2023-03-23T16:24:52;9.60;99.90
24522;DHT22;12680;57.804;12.190;2023-03-23T16:27:19;9.60;99.90
24522;DHT22;12680;57.804;12.190;2023-03-23T16:29:47;9.60;99.90
24522;DHT22;12680;57.804;12.190;2023-03-23T16:32:29;9.50;99.90
24522;DHT22;12680;57.804;12.190;2023-03-23T16:34:56;9.40;99.90
24522;DHT22;12680;57.804;12.190;2023-03-23T16:37:23;9.60;99.90
24522;DHT22;12680;57.804;12.190;2023-03-23T16:39:51;9.30;99.90
24522;DHT22;12680;57.804;12.190;2023-03-23T16:42:18;9.20;99.90
24522;DHT22;12680;57.804;12.190;2023-03-23T16:44:44;9.20;99.90
24522;DHT22;12680;57.804;12.190;2023-03-23T16:47:12;9.20;99.90
24522;DHT22;12680;57.804;12.190;2023-03-23T16:49:39;9.20;99.90
24522;DHT22;12680;57.804;12.190;2023-03-23T16:52:05;9.10;99.90
24522;DHT22;12680;57.804;12.190;2023-03-23T16:54:32;9.10;99.90
24522;DHT22;12680;57.804;12.190;2023-03-23T16:56:59;9.10;99.90
24522;DHT22;12680;57.804;12.190;2023-03-23T16:59:27;9.60;99.90
24522;DHT22;12680;57.804;12.190;2023-03-23T17:01:54;9.30;99.90